Time;durP1;ratioP1;P1;durP2;ratioP2;P2;SDS_P1;SDS_P2;PMS_P1;PMS_P2;Temp;Humidity;BMP_temperature;BMP_pressure;BME280_temperature;BME280_humidity;BME280_pressure;Samples;Min_cycle;Max_cycle;Signal;HPM_P1;HPM_P2
2022/06/23 00:02:25;;;;;;;3.55;2.50;;;21.50;99.90;;;;;;5077216;28;20481;-69
2022/06/23 00:04:55;;;;;;;3.10;2.67;;;21.50;99.90;;;;;;5076495;28;20107;-69
2022/06/23 00:07:35;;;;;;;4.38;2.40;;;21.50;99.90;;;;;;5077092;28;20028;-68
2022/06/23 00:10:12;;;;;;;5.85;2.38;;;21.50;99.90;;;;;;5077581;28;20025;-69
2022/06/23 00:12:40;;;;;;;3.60;2.45;;;21.50;99.90;;;;;;5076488;28;20396;-69
2022/06/23 00:15:06;;;;;;;6.80;2.72;;;21.40;99.90;;;;;;5077067;28;20075;-68
2022/06/23 00:17:45;;;;;;;4.80;2.63;;;21.40;99.90;;;;;;5076975;28;20052;-69
2022/06/23 00:20:35;;;;;;;3.13;2.30;;;21.20;99.90;;;;;;5077407;28;20056;-68
2022/06/23 00:23:11;;;;;;;5.18;2.72;;;21.10;99.90;;;;;;5077037;28;20077;-68
2022/06/23 00:25:48;;;;;;;3.92;2.80;;;21.10;99.90;;;;;;5076829;28;20400;-68
2022/06/23 00:28:42;;;;;;;6.25;2.88;;;21.00;99.90;;;;;;5076916;28;20042;-68
2022/06/23 00:31:28;;;;;;;6.10;2.75;;;21.00;99.90;;;;;;5076129;28;20031;-69
2022/06/23 00:33:56;;;;;;;6.00;3.05;;;21.00;99.90;;;;;;5076082;28;20030;-68
2022/06/23 00:36:55;;;;;;;3.22;2.70;;;21.10;99.90;;;;;;5076752;28;20115;-69
2022/06/23 00:39:24;;;;;;;5.72;2.95;;;21.00;99.90;;;;;;5076914;28;20040;-68
2022/06/23 00:41:50;;;;;;;4.30;2.88;;;21.00;99.90;;;;;;5076766;28;20028;-69
2022/06/23 00:44:36;;;;;;;6.00;3.25;;;20.90;99.90;;;;;;5076759;28;20119;-68
2022/06/23 00:47:07;;;;;;;4.60;2.88;;;20.90;99.90;;;;;;5076713;28;20048;-68
2022/06/23 00:49:53;;;;;;;3.45;2.88;;;20.80;99.90;;;;;;5076795;28;20091;-69
2022/06/23 00:52:35;;;;;;;3.70;2.80;;;20.80;99.90;;;;;;5076992;28;20074;-69
2022/06/23 00:55:09;;;;;;;6.22;2.92;;;20.70;99.90;;;;;;5076978;28;20444;-69
2022/06/23 00:57:41;;;;;;;5.75;3.05;;;20.70;99.90;;;;;;5077349;28;20025;-69
2022/06/23 01:00:15;;;;;;;6.50;2.80;;;20.70;99.90;;;;;;5076638;28;20064;-67
2022/06/23 01:02:57;;;;;;;5.63;3.00;;;20.70;99.90;;;;;;5076639;28;20024;-69
2022/06/23 01:05:30;;;;;;;5.18;2.95;;;20.70;99.90;;;;;;5076608;28;20040;-69
2022/06/23 01:08:12;;;;;;;2.80;2.50;;;20.80;99.90;;;;;;5076581;28;20308;-68
2022/06/23 01:10:48;;;;;;;3.38;2.75;;;20.80;99.90;;;;;;5076696;28;20028;-68
2022/06/23 01:13:36;;;;;;;7.07;2.90;;;20.80;99.90;;;;;;5076510;28;20408;-68
2022/06/23 01:16:17;;;;;;;3.80;2.58;;;20.90;99.90;;;;;;5076726;28;20032;-68
2022/06/23 01:18:52;;;;;;;4.30;2.90;;;20.80;99.90;;;;;;5076454;28;20063;-68
2022/06/23 01:21:50;;;;;;;5.65;2.72;;;20.80;99.90;;;;;;5075582;28;20024;-69
2022/06/23 01:24:42;;;;;;;4.18;2.63;;;20.90;99.90;;;;;;5075942;28;20164;-69
2022/06/23 01:27:23;;;;;;;3.40;2.60;;;20.90;99.90;;;;;;5076272;28;20301;-69
2022/06/23 01:30:04;;;;;;;3.45;2.53;;;20.90;99.90;;;;;;5075523;28;20052;-69
2022/06/23 01:33:16;;;;;;;6.13;2.85;;;20.90;99.90;;;;;;5076396;28;20028;-68
2022/06/23 01:35:55;;;;;;;4.50;2.63;;;21.00;99.90;;;;;;5068445;28;20423;-69
2022/06/23 01:38:49;;;;;;;3.83;2.60;;;20.90;99.90;;;;;;5075371;28;20106;-68
2022/06/23 01:41:32;;;;;;;4.60;2.80;;;20.90;99.90;;;;;;5075128;28;20048;-69
2022/06/23 01:44:26;;;;;;;6.43;3.10;;;20.70;99.90;;;;;;5076199;28;20063;-68
2022/06/23 01:46:55;;;;;;;4.30;2.65;;;20.90;99.90;;;;;;5070073;28;20058;-69
2022/06/23 01:49:26;;;;;;;7.03;2.95;;;20.90;99.90;;;;;;5079636;28;20033;-69
2022/06/23 01:51:55;;;;;;;4.30;2.47;;;21.00;99.90;;;;;;5079661;28;20036;-69
2022/06/23 01:54:21;;;;;;;3.83;2.65;;;21.00;99.90;;;;;;5080193;28;20085;-69
2022/06/23 01:56:53;;;;;;;4.57;2.70;;;21.00;99.90;;;;;;5078617;28;20468;-69
2022/06/23 01:59:37;;;;;;;5.87;2.87;;;20.90;99.90;;;;;;5079572;28;20036;-69
2022/06/23 02:02:24;;;;;;;4.60;2.63;;;20.80;99.90;;;;;;5079707;28;20032;-69
2022/06/23 02:05:11;;;;;;;3.75;2.53;;;20.90;99.90;;;;;;5079365;28;20108;-69
2022/06/23 02:07:40;;;;;;;6.18;2.55;;;21.10;99.90;;;;;;5079394;28;20055;-69
2022/06/23 02:10:22;;;;;;;5.18;2.30;;;21.00;99.90;;;;;;5079526;28;20028;-69
2022/06/23 02:13:11;;;;;;;3.40;2.70;;;21.00;99.90;;;;;;5079293;28;20116;-69
2022/06/23 02:16:15;;;;;;;4.80;2.67;;;21.10;99.90;;;;;;5078912;28;20040;-69
2022/06/23 02:19:00;;;;;;;3.33;2.70;;;21.10;99.90;;;;;;5079004;28;20045;-70
2022/06/23 02:21:32;;;;;;;4.35;2.58;;;21.00;99.90;;;;;;5078388;28;20027;-71
2022/06/23 02:24:12;;;;;;;6.72;2.45;;;21.00;99.90;;;;;;5079672;28;20039;-69
2022/06/23 02:27:05;;;;;;;4.10;2.60;;;21.00;99.90;;;;;;5078963;28;20029;-70
2022/06/23 02:29:54;;;;;;;3.13;2.50;;;21.00;99.90;;;;;;5079048;28;20067;-68
2022/06/23 02:32:32;;;;;;;3.25;2.38;;;20.80;99.90;;;;;;5079486;28;20086;-68
2022/06/23 02:35:19;;;;;;;3.35;2.25;;;20.90;99.90;;;;;;5061412;28;20029;-69
2022/06/23 02:38:06;;;;;;;2.88;2.15;;;20.80;99.90;;;;;;5077923;28;20084;-69
2022/06/23 02:40:39;;;;;;;3.85;2.67;;;20.80;99.90;;;;;;5078031;28;20051;-69
2022/06/23 02:43:10;;;;;;;2.60;2.22;;;20.80;99.90;;;;;;5078740;28;20035;-70
2022/06/23 02:46:01;;;;;;;4.00;2.30;;;20.80;99.90;;;;;;5078913;28;20043;-69
2022/06/23 02:48:52;;;;;;;5.50;2.25;;;20.80;99.90;;;;;;5078581;28;20388;-69
2022/06/23 02:51:49;;;;;;;4.47;2.50;;;20.50;99.90;;;;;;5078547;28;20304;-70
2022/06/23 02:54:43;;;;;;;5.82;2.40;;;20.40;99.90;;;;;;5078446;28;20024;-70
2022/06/23 02:57:33;;;;;;;3.47;2.40;;;20.20;99.90;;;;;;5076940;28;20269;-69
2022/06/23 03:00:24;;;;;;;4.55;2.55;;;20.30;99.90;;;;;;5078398;28;20296;-70
2022/06/23 03:03:01;;;;;;;3.88;2.67;;;20.20;99.90;;;;;;5077586;28;20032;-69
2022/06/23 03:05:55;;;;;;;4.43;2.47;;;20.10;99.90;;;;;;5078224;28;20032;-68
2022/06/23 03:08:41;;;;;;;4.93;2.75;;;19.80;99.90;;;;;;5078163;28;20032;-69
2022/06/23 03:14:30;;;;;;;4.43;2.78;;;19.60;99.90;;;;;;5078116;28;20033;-69
2022/06/23 03:17:09;;;;;;;6.40;2.90;;;19.60;99.90;;;;;;5078052;28;20098;-69
2022/06/23 03:19:42;;;;;;;5.45;2.75;;;19.60;99.90;;;;;;5077939;28;20025;-69
2022/06/23 03:22:21;;;;;;;5.38;2.75;;;19.70;99.90;;;;;;5077862;28;20032;-69
2022/06/23 03:25:00;;;;;;;4.15;2.50;;;19.60;99.90;;;;;;5077357;28;20116;-68
2022/06/23 03:27:37;;;;;;;3.15;2.70;;;19.50;99.90;;;;;;5077496;28;20080;-69
2022/06/23 03:30:26;;;;;;;4.20;2.72;;;19.40;99.90;;;;;;5078178;28;20042;-68
2022/06/23 03:32:59;;;;;;;5.45;2.67;;;19.50;99.90;;;;;;5077715;28;20107;-69
2022/06/23 03:35:37;;;;;;;4.38;2.70;;;19.40;99.90;;;;;;5077635;28;20038;-70
2022/06/23 03:41:36;;;;;;;4.93;2.60;;;19.20;99.90;;;;;;5077824;28;20032;-69
2022/06/23 03:44:27;;;;;;;5.63;2.50;;;19.20;99.90;;;;;;5076816;28;20093;-69
2022/06/23 03:46:59;;;;;;;2.90;2.50;;;19.10;99.90;;;;;;5060025;28;20376;-69
2022/06/23 03:49:44;;;;;;;3.90;2.70;;;19.20;99.90;;;;;;5077524;28;20103;-69
2022/06/23 03:52:30;;;;;;;5.75;2.60;;;19.30;99.90;;;;;;5077130;28;20301;-69
2022/06/23 03:55:05;;;;;;;4.55;2.85;;;19.40;99.90;;;;;;5077299;28;20100;-69
2022/06/23 03:57:42;;;;;;;6.22;2.85;;;19.50;99.90;;;;;;5059850;28;20043;-69
2022/06/23 04:00:22;;;;;;;5.03;2.60;;;19.60;99.90;;;;;;5077213;28;20028;-69
2022/06/23 04:02:59;;;;;;;3.22;2.80;;;19.40;99.90;;;;;;5077372;28;20115;-69
2022/06/23 04:05:49;;;;;;;5.63;2.45;;;19.30;99.90;;;;;;5076491;28;20059;-69
2022/06/23 04:08:15;;;;;;;4.05;2.45;;;19.40;99.90;;;;;;5076941;28;20339;-69
2022/06/23 04:10:44;;;;;;;4.38;2.72;;;19.50;99.90;;;;;;5077201;28;20024;-69
2022/06/23 04:13:24;;;;;;;4.60;2.88;;;19.50;99.90;;;;;;5077097;28;20056;-69
2022/06/23 04:15:51;;;;;;;5.10;2.92;;;19.60;99.90;;;;;;5077638;28;20043;-69
2022/06/23 04:18:22;;;;;;;4.60;2.90;;;19.60;99.90;;;;;;5077014;28;20035;-69
2022/06/23 04:20:57;;;;;;;5.97;3.00;;;19.60;99.90;;;;;;5077036;28;20028;-68
2022/06/23 04:23:40;;;;;;;3.88;2.80;;;19.60;99.90;;;;;;5076877;28;20024;-68
2022/06/23 04:26:14;;;;;;;6.20;3.30;;;19.60;99.90;;;;;;5076868;28;20062;-69
2022/06/23 04:28:54;;;;;;;4.57;3.08;;;19.40;99.90;;;;;;5077171;28;20028;-68
2022/06/23 04:31:30;;;;;;;4.88;2.75;;;19.40;99.90;;;;;;5077124;28;20097;-69
2022/06/23 04:33:57;;;;;;;5.05;2.65;;;19.40;99.90;;;;;;5076710;28;20437;-69
2022/06/23 04:36:27;;;;;;;4.45;3.08;;;19.30;99.90;;;;;;5076892;28;20025;-70
2022/06/23 04:39:08;;;;;;;5.03;2.80;;;19.20;99.90;;;;;;5076701;28;20060;-69
2022/06/23 04:42:19;;;;;;;5.03;3.60;;;19.40;99.90;;;;;;5076083;28;20043;-70
2022/06/23 04:44:50;;;;;;;5.80;3.38;;;19.50;99.90;;;;;;5075981;28;20028;-71
2022/06/23 04:47:20;;;;;;;4.20;3.13;;;19.60;99.90;;;;;;5059232;28;20036;-69
2022/06/23 04:49:53;;;;;;;3.78;3.10;;;19.50;99.90;;;;;;5076734;28;20032;-69
2022/06/23 04:52:22;;;;;;;9.50;3.33;;;19.60;99.90;;;;;;5076636;28;20029;-68
2022/06/23 04:55:06;;;;;;;4.45;3.13;;;19.60;99.90;;;;;;5076820;28;20029;-68
2022/06/23 04:57:55;;;;;;;5.90;3.20;;;19.60;99.90;;;;;;5076892;28;20423;-68
2022/06/23 05:00:26;;;;;;;5.80;3.30;;;19.80;99.90;;;;;;5077288;28;20452;-69
2022/06/23 05:03:17;;;;;;;5.63;3.15;;;19.90;99.90;;;;;;5076725;28;20052;-70
2022/06/23 05:05:44;;;;;;;6.72;3.65;;;20.10;99.90;;;;;;5076530;28;20029;-69
2022/06/23 05:08:26;;;;;;;4.38;2.90;;;19.90;99.90;;;;;;5076069;28;20296;-69
2022/06/23 05:11:06;;;;;;;4.38;3.13;;;19.90;99.90;;;;;;5076791;28;20048;-69
2022/06/23 05:13:55;;;;;;;4.80;3.40;;;19.90;99.90;;;;;;5076635;28;20040;-70
2022/06/23 05:16:41;;;;;;;6.00;3.10;;;20.20;99.90;;;;;;5076110;28;20076;-69
2022/06/23 05:19:10;;;;;;;6.07;3.50;;;20.40;99.90;;;;;;5075725;28;20312;-68
2022/06/23 05:21:46;;;;;;;7.80;3.40;;;20.30;99.90;;;;;;5062838;28;20044;-67
2022/06/23 05:24:40;;;;;;;10.80;3.70;;;20.30;99.90;;;;;;5079512;28;20032;-69
2022/06/23 05:27:34;;;;;;;6.38;3.28;;;20.30;99.90;;;;;;5077870;28;20071;-68
2022/06/23 05:30:18;;;;;;;4.03;3.38;;;20.50;99.90;;;;;;5063656;28;20025;-67
2022/06/23 05:32:51;;;;;;;4.47;3.75;;;20.40;99.90;;;;;;5080168;28;20024;-68
2022/06/23 05:35:24;;;;;;;7.93;3.60;;;20.30;99.90;;;;;;5079310;28;20028;-68
2022/06/23 05:37:57;;;;;;;9.63;3.50;;;20.60;99.90;;;;;;5079228;28;20102;-69
2022/06/23 05:40:52;;;;;;;5.85;3.30;;;20.70;99.90;;;;;;5080232;28;20028;-70
2022/06/23 05:43:19;;;;;;;9.70;3.53;;;20.80;99.90;;;;;;5079659;28;20029;-71
2022/06/23 05:45:56;;;;;;;7.88;3.90;;;20.80;99.90;;;;;;5079690;28;20032;-70
2022/06/23 05:48:43;;;;;;;6.47;4.07;;;20.80;99.90;;;;;;5079492;28;20284;-69
2022/06/23 05:51:09;;;;;;;7.72;3.90;;;21.00;99.90;;;;;;5079454;28;20369;-68
2022/06/23 05:54:04;;;;;;;4.63;3.13;;;21.10;99.90;;;;;;5080004;28;20254;-68
2022/06/23 05:56:36;;;;;;;4.72;3.70;;;21.20;99.90;;;;;;5062661;28;20072;-68
2022/06/23 05:59:22;;;;;;;5.15;3.55;;;21.20;99.90;;;;;;5080022;28;20021;-68
2022/06/23 06:01:56;;;;;;;5.85;3.45;;;21.40;99.90;;;;;;5062856;28;20025;-69
2022/06/23 06:04:30;;;;;;;6.15;3.15;;;21.30;99.90;;;;;;5079006;28;20119;-70
2022/06/23 06:06:57;;;;;;;6.68;3.30;;;21.40;99.90;;;;;;5079685;28;20028;-70
2022/06/23 06:09:37;;;;;;;6.20;3.65;;;21.50;99.90;;;;;;5078827;28;20032;-70
2022/06/23 06:12:38;;;;;;;7.60;4.10;;;21.60;99.90;;;;;;5078687;28;20032;-69
2022/06/23 06:15:19;;;;;;;6.78;3.90;;;21.80;99.90;;;;;;5079053;28;20031;-70
2022/06/23 06:17:45;;;;;;;6.70;3.63;;;22.00;99.90;;;;;;5061531;28;20033;-70
2022/06/23 06:20:15;;;;;;;7.97;4.10;;;22.00;99.90;;;;;;5078929;28;20037;-70
2022/06/23 06:22:55;;;;;;;8.88;4.05;;;22.00;99.90;;;;;;5078979;28;20060;-70
2022/06/23 06:25:25;;;;;;;7.25;3.72;;;21.90;99.90;;;;;;5078995;28;20131;-71
2022/06/23 06:27:54;;;;;;;7.28;4.35;;;21.90;99.90;;;;;;5078900;28;20051;-66
2022/06/23 06:30:26;;;;;;;6.00;3.75;;;22.00;99.90;;;;;;5078787;28;20033;-68
2022/06/23 06:32:53;;;;;;;6.30;4.13;;;22.10;99.90;;;;;;5078059;28;20349;-69
2022/06/23 06:35:28;;;;;;;6.90;4.07;;;22.20;99.90;;;;;;5078674;28;20078;-68
2022/06/23 06:38:09;;;;;;;9.68;4.10;;;22.10;99.90;;;;;;5078580;28;20056;-69
2022/06/23 06:40:37;;;;;;;8.23;4.50;;;22.30;99.90;;;;;;5078099;28;20462;-68
2022/06/23 06:43:08;;;;;;;10.30;4.95;;;22.30;99.90;;;;;;5077750;28;20097;-69
2022/06/23 06:45:37;;;;;;;6.55;4.53;;;22.30;99.90;;;;;;5077886;28;20052;-69
2022/06/23 06:48:09;;;;;;;5.97;4.30;;;22.50;99.90;;;;;;5078481;28;20025;-69
2022/06/23 06:50:45;;;;;;;;;;;22.50;99.90;;;;;;5078785;28;20060;-69
2022/06/23 06:53:25;;;;;;;7.35;4.72;;;22.50;99.90;;;;;;5078355;28;19972;-69
2022/06/23 06:56:18;;;;;;;7.20;4.60;;;22.50;99.90;;;;;;5078392;28;20025;-69
2022/06/23 06:59:09;;;;;;;6.10;4.90;;;22.60;99.90;;;;;;5078490;28;20028;-70
2022/06/23 07:01:37;;;;;;;10.20;4.55;;;22.50;99.90;;;;;;5078724;28;20090;-69
2022/06/23 07:04:03;;;;;;;6.78;5.03;;;22.50;99.90;;;;;;5077508;28;20017;-69
2022/06/23 07:06:50;;;;;;;10.38;5.00;;;22.30;99.90;;;;;;5078002;28;20082;-68
2022/06/23 07:09:40;;;;;;;6.30;4.70;;;22.40;99.90;;;;;;5078317;28;20350;-70
2022/06/23 07:12:31;;;;;;;9.48;5.25;;;22.40;99.90;;;;;;5077259;28;20028;-70
2022/06/23 07:15:30;;;;;;;11.70;5.45;;;22.60;99.90;;;;;;5077922;28;20082;-69
2022/06/23 07:18:04;;;;;;;7.15;4.68;;;22.60;99.90;;;;;;5060722;28;20039;-69
2022/06/23 07:20:48;;;;;;;10.20;5.25;;;22.60;99.90;;;;;;5077359;28;20364;-65
2022/06/23 07:23:22;;;;;;;7.65;4.95;;;22.70;99.90;;;;;;5077982;28;20059;-66
2022/06/23 07:25:57;;;;;;;12.45;5.75;;;22.70;99.90;;;;;;5077124;28;20036;-69
2022/06/23 07:28:40;;;;;;;11.68;5.20;;;22.80;99.90;;;;;;5077030;28;20042;-66
2022/06/23 07:31:16;;;;;;;8.63;5.00;;;22.90;99.90;;;;;;5078321;28;20033;-67
2022/06/23 07:33:57;;;;;;;11.48;5.68;;;23.00;99.90;;;;;;5077834;28;20105;-68
2022/06/23 07:36:32;;;;;;;10.10;5.28;;;23.00;99.90;;;;;;5061072;28;20036;-67
2022/06/23 07:39:10;;;;;;;10.95;5.50;;;23.10;99.90;;;;;;5076771;28;20067;-65
2022/06/23 07:41:42;;;;;;;10.07;5.55;;;23.20;99.90;;;;;;5077595;28;20033;-68
2022/06/23 07:44:14;;;;;;;;;;;23.20;99.90;;;;;;5077697;28;20094;-66
2022/06/23 07:46:40;;;;;;;6.87;5.23;;;23.30;99.90;;;;;;5078446;28;20344;-67
2022/06/23 07:49:07;;;;;;;8.27;5.32;;;23.50;99.90;;;;;;5076630;28;20603;-63
2022/06/23 07:51:37;;;;;;;10.68;5.63;;;23.60;99.90;;;;;;5060204;28;20354;-66
2022/06/23 07:54:05;;;;;;;9.38;6.10;;;23.70;99.90;;;;;;5076701;28;20035;-67
2022/06/23 07:56:34;;;;;;;11.88;6.45;;;23.70;99.90;;;;;;5077378;28;20396;-64
2022/06/23 07:59:08;;;;;;;14.80;6.57;;;23.80;99.90;;;;;;5076873;28;20032;-69
2022/06/23 08:01:42;;;;;;;11.98;6.38;;;23.90;99.90;;;;;;5076885;28;20036;-65
2022/06/23 08:04:35;;;;;;;18.17;6.85;;;23.80;99.90;;;;;;5077237;28;20051;-66
2022/06/23 08:07:03;;;;;;;11.77;7.00;;;23.80;99.90;;;;;;5077309;28;20115;-67
2022/06/23 08:09:34;;;;;;;12.80;7.00;;;23.80;99.90;;;;;;5077481;28;20380;-66
2022/06/23 08:17:50;;;;;;;15.38;7.45;;;23.80;99.90;;;;;;5077164;28;20349;-65
2022/06/23 08:20:19;;;;;;;11.32;7.43;;;23.80;99.90;;;;;;5076917;28;20040;-64
2022/06/23 08:22:47;;;;;;;13.25;7.82;;;23.90;99.90;;;;;;5076967;28;20066;-64
2022/06/23 08:25:16;;;;;;;9.88;6.95;;;24.10;99.90;;;;;;5076282;28;20365;-64
2022/06/23 08:27:43;;;;;;;11.70;6.38;;;24.10;99.90;;;;;;5076859;28;20052;-66
2022/06/23 08:30:14;;;;;;;11.80;6.82;;;24.10;99.90;;;;;;5076928;28;20021;-66
2022/06/23 08:32:44;;;;;;;11.57;6.53;;;24.30;99.90;;;;;;5076903;28;20017;-67
2022/06/23 08:35:45;;;;;;;11.88;6.30;;;24.80;99.90;;;;;;5076946;28;20024;-68
2022/06/23 08:38:24;;;;;;;12.75;6.90;;;25.30;99.90;;;;;;5076616;28;20063;-65
2022/06/23 08:41:38;;;;;;;10.25;6.00;;;25.20;99.90;;;;;;5076159;28;20304;-64
2022/06/23 08:44:18;;;;;;;9.63;5.45;;;24.80;99.90;;;;;;5053459;28;20032;-65
2022/06/23 08:47:05;;;;;;;10.35;6.50;;;24.70;99.90;;;;;;5076553;28;20116;-65
2022/06/23 08:49:50;;;;;;;11.05;5.28;;;24.90;99.90;;;;;;5075990;28;20436;-62
2022/06/23 08:52:25;;;;;;;13.60;6.13;;;25.00;99.90;;;;;;5076687;28;20029;-66
2022/06/23 08:55:06;;;;;;;6.90;4.82;;;25.00;99.90;;;;;;5078009;28;20043;-65
2022/06/23 08:57:32;;;;;;;7.15;4.97;;;25.10;99.90;;;;;;5080647;28;20048;-65
2022/06/23 09:00:09;;;;;;;8.88;5.07;;;25.30;99.90;;;;;;5079789;28;20307;-65
2022/06/23 09:02:52;;;;;;;8.60;5.28;;;25.10;99.90;;;;;;5079837;28;20044;-63
2022/06/23 09:05:46;;;;;;;8.90;5.20;;;25.00;99.90;;;;;;5080692;28;20028;-62
2022/06/23 09:08:24;;;;;;;5.75;4.85;;;25.10;99.90;;;;;;5080496;28;20415;-62
2022/06/23 09:11:05;;;;;;;9.80;5.10;;;25.00;99.90;;;;;;5080526;28;20477;-63
2022/06/23 09:13:37;;;;;;;8.85;5.75;;;25.30;99.90;;;;;;5079518;28;20074;-65
2022/06/23 09:16:32;;;;;;;7.65;5.32;;;25.40;99.90;;;;;;5080420;28;20047;-66
2022/06/23 09:19:17;;;;;;;12.13;5.25;;;25.60;99.90;;;;;;5080615;28;20033;-69
2022/06/23 09:22:06;;;;;;;7.50;5.13;;;25.90;99.90;;;;;;5080249;28;20036;-64
2022/06/23 09:25:01;;;;;;;8.68;5.10;;;25.80;99.90;;;;;;5080448;28;20035;-65
2022/06/23 09:28:06;;;;;;;6.50;5.15;;;25.40;99.90;;;;;;5079016;28;20274;-64
2022/06/23 09:31:00;;;;;;;9.82;5.57;;;25.50;99.90;;;;;;5076044;28;20050;-63
2022/06/23 09:34:00;;;;;;;9.75;4.97;;;25.80;99.90;;;;;;5079631;28;20044;-65
2022/06/23 09:36:29;;;;;;;6.63;4.50;;;25.60;99.90;;;;;;5079456;28;20504;-65
2022/06/23 09:39:30;;;;;;;7.32;4.82;;;25.40;99.90;;;;;;5079723;28;20113;-63
2022/06/23 09:42:42;;;;;;;7.68;4.57;;;25.30;99.90;;;;;;5079401;28;20059;-64
2022/06/23 09:45:21;;;;;;;5.80;5.10;;;25.40;99.90;;;;;;5063207;28;20088;-64
2022/06/23 09:48:25;;;;;;;6.43;4.40;;;25.50;99.90;;;;;;5079566;28;20028;-63
2022/06/23 09:51:18;;;;;;;6.32;4.53;;;25.20;99.90;;;;;;5079594;28;20025;-63
2022/06/23 09:54:13;;;;;;;7.50;5.03;;;25.30;99.90;;;;;;5079672;28;20024;-68
2022/06/23 09:57:08;;;;;;;6.85;4.45;;;25.50;99.90;;;;;;5078837;28;20024;-67
2022/06/23 09:59:59;;;;;;;6.05;4.88;;;25.60;99.90;;;;;;5080145;28;20043;-66
2022/06/23 10:02:43;;;;;;;7.65;4.50;;;26.00;99.90;;;;;;5079543;28;20032;-65
2022/06/23 10:05:41;;;;;;;9.07;4.47;;;26.10;99.90;;;;;;5078773;28;20032;-63
2022/06/23 10:08:30;;;;;;;6.25;4.35;;;26.20;99.90;;;;;;5056573;28;20094;-65
2022/06/23 10:11:05;;;;;;;7.38;3.90;;;26.10;99.90;;;;;;5069395;28;20074;-64
2022/06/23 10:13:46;;;;;;;5.47;4.00;;;26.30;99.90;;;;;;5079337;28;20032;-64
2022/06/23 10:16:39;;;;;;;4.60;3.65;;;26.40;99.90;;;;;;5079759;28;20028;-67
2022/06/23 10:19:27;;;;;;;7.68;4.03;;;27.00;99.90;;;;;;5078480;28;20085;-63
2022/06/23 10:22:05;;;;;;;8.60;4.50;;;26.80;99.90;;;;;;5079515;28;20301;-63
2022/06/23 10:24:55;;;;;;;8.57;4.28;;;26.60;99.90;;;;;;5079076;28;20097;-62
2022/06/23 10:27:43;;;;;;;7.43;3.85;;;26.40;99.90;;;;;;5079050;28;20025;-64
2022/06/23 10:30:31;;;;;;;8.30;4.00;;;26.70;99.90;;;;;;5078289;28;20075;-63
2022/06/23 10:33:21;;;;;;;4.97;3.75;;;26.90;99.90;;;;;;5078850;28;20032;-63
2022/06/23 10:36:25;;;;;;;3.90;3.05;;;26.90;99.90;;;;;;5079047;28;20036;-63
2022/06/23 10:39:16;;;;;;;7.57;3.55;;;27.20;99.90;;;;;;5079250;28;20047;-63
2022/06/23 10:41:44;;;;;;;5.88;3.65;;;27.30;99.90;;;;;;5078775;28;20033;-63
2022/06/23 10:44:25;;;;;;;6.85;3.70;;;27.30;99.90;;;;;;5078788;28;20055;-63
2022/06/23 10:47:22;;;;;;;5.25;3.80;;;27.50;99.90;;;;;;5078681;28;20028;-64
2022/06/23 10:50:05;;;;;;;5.60;3.53;;;27.80;99.90;;;;;;5078634;28;20025;-64
2022/06/23 10:53:09;;;;;;;8.63;3.88;;;28.20;99.90;;;;;;5077846;28;20060;-67
2022/06/23 10:55:59;;;;;;;7.32;3.58;;;28.70;99.90;;;;;;5077824;28;20029;-66
2022/06/23 10:59:05;;;;;;;6.32;3.20;;;28.40;99.90;;;;;;5079165;28;20032;-67
2022/06/23 11:01:48;;;;;;;6.00;3.42;;;28.50;99.90;;;;;;5078674;28;20039;-66
2022/06/23 11:04:23;;;;;;;9.73;3.58;;;28.60;99.90;;;;;;5077631;28;20059;-63
2022/06/23 11:07:27;;;;;;;6.45;3.15;;;28.20;99.90;;;;;;5078214;28;20025;-63
2022/06/23 11:10:28;;;;;;;6.13;3.10;;;28.20;99.90;;;;;;5078469;28;20036;-65
2022/06/23 11:13:11;;;;;;;5.57;3.13;;;28.50;99.90;;;;;;5044412;28;20106;-65
2022/06/23 11:16:00;;;;;;;6.22;3.20;;;29.70;99.90;;;;;;5078104;28;20452;-65
2022/06/23 11:19:05;;;;;;;9.00;3.10;;;30.70;99.90;;;;;;5077356;28;20103;-64
2022/06/23 11:22:17;;;;;;;5.45;2.72;;;31.60;99.90;;;;;;5078560;28;20032;-65
2022/06/23 11:24:48;;;;;;;6.53;2.75;;;31.40;99.90;;;;;;5056382;28;20160;-63
2022/06/23 11:27:34;;;;;;;10.25;3.13;;;32.20;99.90;;;;;;5056405;28;20385;-65
2022/06/23 11:30:12;;;;;;;5.80;2.42;;;32.20;99.90;;;;;;5070053;28;20036;-66
2022/06/23 11:33:15;;;;;;;4.38;2.50;;;32.30;99.90;;;;;;5077722;28;20043;-66
2022/06/23 11:36:04;;;;;;;6.22;2.75;;;31.90;99.90;;;;;;5077688;28;20020;-66
2022/06/23 11:38:33;;;;;;;4.80;2.50;;;33.50;99.90;;;;;;5077772;28;20404;-66
2022/06/23 11:41:12;;;;;;;5.90;2.78;;;35.10;99.90;;;;;;5076745;28;20028;-70
2022/06/23 11:43:40;;;;;;;7.13;2.38;;;36.10;99.90;;;;;;5078137;28;20040;-64
2022/06/23 11:46:31;;;;;;;6.57;2.75;;;34.30;99.90;;;;;;5077231;28;20028;-63
2022/06/23 11:49:26;;;;;;;8.40;2.80;;;33.20;99.90;;;;;;5077478;28;20277;-66
2022/06/23 11:52:20;;;;;;;5.45;2.63;;;32.00;99.90;;;;;;5077420;28;20304;-63
2022/06/23 11:55:06;;;;;;;4.32;2.40;;;31.40;99.90;;;;;;5077318;28;20063;-65
2022/06/23 11:58:11;;;;;;;4.00;2.30;;;32.30;99.90;;;;;;5077660;28;20450;-65
2022/06/23 12:01:00;;;;;;;3.70;2.15;;;33.70;99.90;;;;;;5077212;28;20024;-63
2022/06/23 12:03:49;;;;;;;7.25;2.25;;;32.30;99.90;;;;;;5076518;28;20040;-62
2022/06/23 12:06:37;;;;;;;5.22;2.40;;;31.40;99.90;;;;;;5076394;28;20277;-63
2022/06/23 12:09:23;;;;;;;4.47;2.47;;;30.90;99.90;;;;;;5076465;28;20040;-62
2022/06/23 12:11:49;;;;;;;7.72;2.63;;;32.00;99.90;;;;;;5077322;28;20052;-63
2022/06/23 12:14:17;;;;;;;4.75;2.20;;;33.00;99.90;;;;;;5076476;28;20063;-63
2022/06/23 12:17:12;;;;;;;5.50;2.17;;;33.40;99.90;;;;;;5077157;28;20372;-63
2022/06/23 12:20:07;;;;;;;4.40;2.25;;;33.60;99.90;;;;;;5074860;28;20127;-65
2022/06/23 12:22:42;;;;;;;7.15;2.20;;;33.80;99.90;;;;;;5074953;28;20169;-63
2022/06/23 12:25:38;;;;;;;4.57;2.00;;;32.50;99.90;;;;;;5076901;28;20396;-63
2022/06/23 12:28:12;;;;;;;6.00;2.30;;;30.90;99.90;;;;;;5076865;28;20064;-63
2022/06/23 12:30:49;;;;;;;6.95;2.30;;;30.80;99.90;;;;;;5076742;28;20083;-64
2022/06/23 12:33:29;;;;;;;4.13;2.25;;;31.20;99.90;;;;;;5076708;28;20059;-66
2022/06/23 12:36:07;;;;;;;5.90;2.20;;;31.70;99.90;;;;;;5076878;28;20067;-64
2022/06/23 12:39:14;;;;;;;6.18;2.38;;;31.50;99.90;;;;;;5076584;28;20044;-64
2022/06/23 12:42:04;;;;;;;7.22;2.75;;;31.50;99.90;;;;;;5055278;28;20028;-64
2022/06/23 12:44:53;;;;;;;4.55;1.95;;;33.30;99.90;;;;;;5076622;28;20422;-64
2022/06/23 12:47:45;;;;;;;3.97;2.13;;;34.20;99.90;;;;;;5066615;28;20123;-63
2022/06/23 12:50:40;;;;;;;3.58;1.83;;;33.60;99.00;;;;;;5076665;28;20292;-64
2022/06/23 12:53:09;;;;;;;3.42;1.85;;;34.70;98.70;;;;;;5076676;28;20119;-65
2022/06/23 12:55:53;;;;;;;5.63;1.88;;;35.70;95.90;;;;;;5076619;28;20334;-63
2022/06/23 12:58:43;;;;;;;4.82;1.77;;;34.10;96.00;;;;;;5077710;28;20033;-63
2022/06/23 13:01:37;;;;;;;4.05;1.92;;;33.70;97.10;;;;;;5076731;28;20037;-64
2022/06/23 13:04:16;;;;;;;3.10;2.03;;;34.60;95.00;;;;;;5076637;28;20443;-64
2022/06/23 13:06:59;;;;;;;5.65;1.67;;;34.10;95.60;;;;;;5075878;28;20109;-64
2022/06/23 13:09:49;;;;;;;5.80;2.30;;;34.70;94.80;;;;;;5076059;28;20047;-65
2022/06/23 13:12:40;;;;;;;4.68;1.85;;;36.40;92.20;;;;;;5076366;28;20016;-66
2022/06/23 13:15:46;;;;;;;3.50;1.80;;;35.80;91.80;;;;;;5077540;28;20028;-70
2022/06/23 13:18:32;;;;;;;5.63;1.92;;;37.10;90.70;;;;;;5077068;28;20032;-66
2022/06/23 13:21:20;;;;;;;3.30;1.90;;;35.70;90.50;;;;;;5076752;28;20043;-71
2022/06/23 13:23:51;;;;;;;4.95;1.90;;;36.60;91.00;;;;;;5076281;28;20024;-72
2022/06/23 13:26:21;;;;;;;4.38;2.17;;;37.80;87.50;;;;;;5076222;28;20315;-66
2022/06/23 13:28:53;;;;;;;4.18;1.80;;;36.80;85.50;;;;;;5076488;28;20327;-66
2022/06/23 13:31:32;;;;;;;7.60;2.08;;;35.00;90.30;;;;;;5076195;28;20109;-65
2022/06/23 13:34:06;;;;;;;5.00;2.00;;;36.00;89.90;;;;;;5076286;28;20024;-72
2022/06/23 13:36:44;;;;;;;3.13;1.70;;;37.40;85.90;;;;;;5076558;28;20066;-69
2022/06/23 13:39:22;;;;;;;6.32;1.60;;;37.50;83.50;;;;;;5076168;28;20113;-63
2022/06/23 13:41:53;;;;;;;2.42;1.80;;;35.40;86.90;;;;;;5077867;28;20028;-65
2022/06/23 13:44:43;;;;;;;4.25;1.50;;;35.80;85.60;;;;;;5079790;28;20119;-64
2022/06/23 13:47:21;;;;;;;3.65;1.88;;;34.80;87.10;;;;;;5076390;28;20044;-68
2022/06/23 13:50:04;;;;;;;4.65;2.00;;;34.80;86.40;;;;;;5079932;28;20044;-64
2022/06/23 13:52:42;;;;;;;3.67;1.92;;;36.00;87.10;;;;;;5079567;28;20028;-64
2022/06/23 13:55:21;;;;;;;4.50;2.03;;;37.00;82.60;;;;;;5079697;28;20384;-64
2022/06/23 13:57:53;;;;;;;4.97;1.90;;;37.50;80.10;;;;;;5079677;28;20113;-64
2022/06/23 14:00:43;;;;;;;4.35;1.80;;;36.00;82.00;;;;;;5079452;28;20377;-63
2022/06/23 14:03:48;;;;;;;5.63;1.88;;;35.20;83.40;;;;;;5069519;28;20044;-66
2022/06/23 14:06:29;;;;;;;4.00;1.67;;;37.30;79.30;;;;;;5078534;28;20037;-65
2022/06/23 14:09:04;;;;;;;4.75;1.80;;;37.70;75.30;;;;;;5079325;28;20039;-65
2022/06/23 14:12:01;;;;;;;2.58;1.75;;;36.70;78.70;;;;;;5079195;28;20266;-65
2022/06/23 14:14:38;;;;;;;4.25;1.80;;;36.70;80.40;;;;;;5079130;28;20036;-66